Time;durP1;ratioP1;P1;durP2;ratioP2;P2;SDS_P1;SDS_P2;PMS_P1;PMS_P2;Temp;Humidity;BMP_temperature;BMP_pressure;BME280_temperature;BME280_humidity;BME280_pressure;Samples;Min_cycle;Max_cycle;Signal;HPM_P1;HPM_P2
2022/05/03 00:00:50;;;;;;;;;;;;;;;11.36;100.00;99709.88;5031065;28;19925;-76
2022/05/03 00:03:27;;;;;;;;;;;;;;;11.45;100.00;99708.16;5014408;28;19929;-76
2022/05/03 00:05:56;;;;;;;;;;;;;;;11.32;100.00;99706.28;5031067;28;19929;-76
2022/05/03 00:08:36;;;;;;;;;;;;;;;10.93;100.00;99709.41;5014392;28;19930;-76
2022/05/03 00:11:06;;;;;;;;;;;;;;;11.26;100.00;99703.16;5031062;28;19925;-76
2022/05/03 00:13:36;;;;;;;;;;;;;;;11.12;100.00;99700.47;5013977;28;20179;-76
2022/05/03 00:16:03;;;;;;;;;;;;;;;11.23;100.00;99703.16;5014276;28;19960;-77
2022/05/03 00:18:30;;;;;;;;;;;;;;;11.16;100.00;99701.25;5031000;28;19952;-76
2022/05/03 00:20:58;;;;;;;;;;;;;;;11.21;100.00;99700.78;5030887;28;19960;-76
2022/05/03 00:23:25;;;;;;;;;;;;;;;11.09;100.00;99701.28;5030742;28;19936;-76
2022/05/03 00:25:52;;;;;;;;;;;;;;;10.83;100.00;99707.47;5030812;28;19925;-76
2022/05/03 00:28:20;;;;;;;;;;;;;;;10.66;100.00;99700.00;5030801;28;19929;-76
2022/05/03 00:30:48;;;;;;;;;;;;;;;10.81;100.00;99702.28;5037504;28;19979;-77
2022/05/03 00:33:16;;;;;;;;;;;;;;;10.73;100.00;99703.56;5051573;28;20315;-76
2022/05/03 00:35:44;;;;;;;;;;;;;;;10.89;100.00;99709.44;5052856;28;20318;-76
2022/05/03 00:38:11;;;;;;;;;;;;;;;11.00;100.00;99692.56;5053004;28;19956;-76
2022/05/03 00:40:44;;;;;;;;;;;;;;;11.22;100.00;99698.78;5085160;28;19925;-76
2022/05/03 00:43:20;;;;;;;;;;;;;;;10.86;100.00;99699.06;5052833;28;19924;-76
2022/05/03 00:46:07;;;;;;;;;;;;;;;10.78;100.00;99702.31;5052637;28;20394;-76
2022/05/03 00:48:43;;;;;;;;;;;;;;;10.69;100.00;99699.19;5051560;28;20422;-76
2022/05/03 00:51:21;;;;;;;;;;;;;;;10.77;100.00;99695.13;5051744;28;19925;-76
2022/05/03 00:53:51;;;;;;;;;;;;;;;10.52;100.00;99705.69;5051723;28;19925;-76
2022/05/03 00:56:19;;;;;;;;;;;;;;;10.49;100.00;99700.91;5085054;28;19947;-76
2022/05/03 00:58:57;;;;;;;;;;;;;;;10.29;100.00;99706.19;5051419;28;19983;-76
2022/05/03 01:01:48;;;;;;;;;;;;;;;10.27;100.00;99699.44;5051462;28;19925;-76
2022/05/03 01:04:29;;;;;;;;;;;;;;;10.51;100.00;99699.28;5062956;28;19925;-76
2022/05/03 01:07:05;;;;;;;;;;;;;;;10.60;100.00;99696.06;5052697;28;19925;-76
2022/05/03 01:09:42;;;;;;;;;;;;;;;10.66;100.00;99694.44;5035266;28;19928;-77
2022/05/03 01:12:22;;;;;;;;;;;;;;;10.54;100.00;99703.28;5068007;28;19924;-76
2022/05/03 01:15:07;;;;;;;;;;;;;;;10.57;100.00;99696.88;5052317;28;19925;-76
2022/05/03 01:17:48;;;;;;;;;;;;;;;10.06;100.00;99699.47;5052565;28;19996;-76
2022/05/03 01:20:30;;;;;;;;;;;;;;;10.12;100.00;99695.91;5054484;28;19929;-77
2022/05/03 01:23:16;;;;;;;;;;;;;;;9.99;100.00;99691.13;5055008;28;20337;-76
2022/05/03 01:25:43;;;;;;;;;;;;;;;10.29;100.00;99699.81;5055087;28;19947;-76
2022/05/03 01:28:13;;;;;;;;;;;;;;;10.39;100.00;99696.19;5055988;28;19924;-76
2022/05/03 01:30:45;;;;;;;;;;;;;;;9.95;100.00;99696.72;5088480;28;20373;-76
2022/05/03 01:33:16;;;;;;;;;;;;;;;10.03;100.00;99697.50;5055975;28;19925;-76
2022/05/03 01:35:45;;;;;;;;;;;;;;;10.09;100.00;99704.28;5055897;28;19928;-77
2022/05/03 01:38:15;;;;;;;;;;;;;;;10.05;100.00;99706.25;5056020;28;20023;-76
2022/05/03 01:41:00;;;;;;;;;;;;;;;10.26;100.00;99707.00;5056074;28;19994;-76
2022/05/03 01:43:40;;;;;;;;;;;;;;;10.27;100.00;99697.41;5054590;28;20277;-76
2022/05/03 01:46:18;;;;;;;;;;;;;;;10.43;100.00;99696.94;5071257;28;20342;-76
2022/05/03 01:51:46;;;;;;;;;;;;;;;10.36;100.00;99697.00;5055718;28;20452;-76
2022/05/03 01:54:32;;;;;;;;;;;;;;;10.26;100.00;99695.03;5054641;28;19956;-76
2022/05/03 01:57:08;;;;;;;;;;;;;;;10.78;100.00;99702.31;5055326;28;19929;-76
2022/05/03 01:59:38;;;;;;;;;;;;;;;10.78;100.00;99702.31;5055666;28;20379;-76
2022/05/03 02:02:23;;;;;;;;;;;;;;;10.54;100.00;99703.28;5055595;28;20291;-77
2022/05/03 02:04:54;;;;;;;;;;;;;;;10.45;100.00;99705.72;5055680;28;19925;-76
2022/05/03 02:07:28;;;;;;;;;;;;;;;10.37;100.00;99693.78;5037753;28;20308;-76
2022/05/03 02:10:03;;;;;;;;;;;;;;;10.55;100.00;99699.28;5055725;28;20479;-76
2022/05/03 02:12:30;;;;;;;;;;;;;;;10.77;100.00;99700.72;5054017;28;19970;-76
2022/05/03 02:15:08;;;;;;;;;;;;;;;11.09;100.00;99684.50;5054312;28;20012;-76
2022/05/03 02:17:44;;;;;;;;;;;;;;;11.35;100.00;99686.69;5087609;28;20019;-76
2022/05/03 02:20:14;;;;;;;;;;;;;;;11.24;100.00;99685.97;5055102;28;20299;-76
2022/05/03 02:22:40;;;;;;;;;;;;;;;11.50;100.00;99688.13;5055228;28;19994;-77
2022/05/03 02:25:12;;;;;;;;;;;;;;;11.07;100.00;99686.94;5053916;28;20011;-76
2022/05/03 02:27:44;;;;;;;;;;;;;;;11.38;100.00;99685.84;5053933;28;20040;-76
2022/05/03 02:30:13;;;;;;;;;;;;;;;11.03;100.00;99686.16;5037419;28;19925;-76
2022/05/03 02:32:49;;;;;;;;;;;;;;;10.98;100.00;99686.59;5054882;28;20375;-77
2022/05/03 02:35:21;;;;;;;;;;;;;;;10.97;100.00;99687.78;5054822;28;19925;-77
2022/05/03 02:37:49;;;;;;;;;;;;;;;11.19;100.00;99688.44;5054968;28;20009;-76
2022/05/03 02:40:19;;;;;;;;;;;;;;;10.66;100.00;99691.63;5054685;28;19928;-76
2022/05/03 02:42:48;;;;;;;;;;;;;;;10.30;100.00;99690.25;5070106;28;20466;-76
2022/05/03 02:45:16;;;;;;;;;;;;;;;10.35;100.00;99687.00;5070071;28;19931;-76
2022/05/03 02:47:43;;;;;;;;;;;;;;;10.41;100.00;99699.34;5055094;28;20031;-76
2022/05/03 02:50:49;;;;;;;;;;;;;;;10.39;100.00;99688.56;5054631;28;19924;-76
2022/05/03 02:53:16;;;;;;;;;;;;;;;10.33;100.00;99700.59;5032291;28;19936;-76
2022/05/03 02:55:45;;;;;;;;;;;;;;;10.47;100.00;99698.53;5032143;28;20031;-76
2022/05/03 02:58:18;;;;;;;;;;;;;;;10.61;100.00;99690.06;5032468;28;19956;-76
2022/05/03 03:04:00;;;;;;;;;;;;;;;10.40;100.00;99689.38;5032151;28;19925;-76
2022/05/03 03:06:30;;;;;;;;;;;;;;;10.85;100.00;99683.50;5015708;28;20055;-76
2022/05/03 03:08:58;;;;;;;;;;;;;;;11.20;100.00;99685.22;5031976;28;19924;-77
2022/05/03 03:11:30;;;;;;;;;;;;;;;10.85;100.00;99679.91;5031974;28;20347;-76
2022/05/03 03:13:57;;;;;;;;;;;;;;;10.67;100.00;99690.41;5015423;28;19925;-76
2022/05/03 03:16:30;;;;;;;;;;;;;;;10.57;100.00;99688.50;5032106;28;19967;-76
2022/05/03 03:19:02;;;;;;;;;;;;;;;10.59;100.00;99689.66;5031851;28;20007;-76
2022/05/03 03:21:32;;;;;;;;;;;;;;;10.98;100.00;99689.38;5015331;28;19925;-77
2022/05/03 03:24:00;;;;;;;;;;;;;;;10.74;100.00;99690.34;5041607;28;19925;-76
2022/05/03 03:26:30;;;;;;;;;;;;;;;10.42;100.00;99684.97;5052769;28;20369;-77
2022/05/03 03:28:58;;;;;;;;;;;;;;;10.11;100.00;99685.13;5052964;28;19925;-77
2022/05/03 03:31:29;;;;;;;;;;;;;;;10.17;100.00;99689.09;5052873;28;19928;-76
2022/05/03 03:33:57;;;;;;;;;;;;;;;10.35;100.00;99698.19;5053724;28;20015;-76
2022/05/03 03:36:26;;;;;;;;;;;;;;;10.49;100.00;99692.53;5085832;28;19924;-76
2022/05/03 03:38:53;;;;;;;;;;;;;;;10.78;100.00;99694.72;5053370;28;20391;-77
2022/05/03 03:41:20;;;;;;;;;;;;;;;10.70;100.00;99689.59;5053675;28;19926;-76
2022/05/03 03:43:47;;;;;;;;;;;;;;;10.83;100.00;99685.91;5051993;28;19963;-77
2022/05/03 03:46:15;;;;;;;;;;;;;;;11.04;100.00;99682.16;5053651;28;19986;-77
2022/05/03 03:48:42;;;;;;;;;;;;;;;10.88;100.00;99681.88;5053522;28;19931;-77
2022/05/03 03:51:10;;;;;;;;;;;;;;;10.59;100.00;99688.84;5053541;28;19925;-76
2022/05/03 03:53:38;;;;;;;;;;;;;;;10.87;100.00;99680.31;5068777;28;19932;-76
2022/05/03 03:56:05;;;;;;;;;;;;;;;11.33;100.00;99677.91;5053398;28;20390;-77
2022/05/03 03:58:33;;;;;;;;;;;;;;;11.25;100.00;99665.19;5053404;28;19925;-76
2022/05/03 04:01:00;;;;;;;;;;;;;;;11.39;100.00;99665.03;5053570;28;19925;-77
2022/05/03 04:03:27;;;;;;;;;;;;;;;11.12;100.00;99672.50;5053296;28;19925;-77
2022/05/03 04:05:55;;;;;;;;;;;;;;;11.50;100.00;99660.16;5085414;28;19932;-76
2022/05/03 04:08:22;;;;;;;;;;;;;;;11.29;100.00;99651.97;5051666;28;19928;-76
2022/05/03 04:10:49;;;;;;;;;;;;;;;11.01;100.00;99657.81;5053404;28;19924;-76
2022/05/03 04:13:16;;;;;;;;;;;;;;;10.71;100.00;99663.22;5052053;28;20015;-76
2022/05/03 04:15:43;;;;;;;;;;;;;;;10.78;100.00;99660.41;5051917;28;20415;-77
2022/05/03 04:18:10;;;;;;;;;;;;;;;11.25;100.00;99658.81;5052028;28;20340;-76
2022/05/03 04:20:38;;;;;;;;;;;;;;;11.03;100.00;99665.81;5052964;28;19925;-76
2022/05/03 04:23:05;;;;;;;;;;;;;;;10.93;100.00;99659.09;5051645;28;19924;-77
2022/05/03 04:25:32;;;;;;;;;;;;;;;11.28;100.00;99669.16;5053150;28;20380;-77
2022/05/03 04:28:00;;;;;;;;;;;;;;;11.39;100.00;99655.88;5053038;28;19932;-77
2022/05/03 04:30:27;;;;;;;;;;;;;;;11.47;100.00;99643.38;5035298;28;20395;-76
2022/05/03 04:32:55;;;;;;;;;;;;;;;11.50;100.00;99648.94;5052832;28;19935;-77
2022/05/03 04:35:21;;;;;;;;;;;;;;;11.74;100.00;99663.94;5052755;28;19924;-76
2022/05/03 04:37:49;;;;;;;;;;;;;;;11.84;100.00;99661.00;5052756;28;19932;-76
2022/05/03 04:40:16;;;;;;;;;;;;;;;11.70;100.00;99649.97;5052785;28;19932;-76
2022/05/03 04:42:44;;;;;;;;;;;;;;;11.66;100.00;99652.00;5084711;28;19925;-76
2022/05/03 04:45:11;;;;;;;;;;;;;;;11.59;100.00;99657.66;5051804;28;19931;-76
2022/05/03 04:47:39;;;;;;;;;;;;;;;11.68;100.00;99659.97;5052939;28;19978;-76
2022/05/03 04:50:07;;;;;;;;;;;;;;;11.46;100.00;99659.41;5052707;28;20006;-77
2022/05/03 04:52:34;;;;;;;;;;;;;;;11.42;100.00;99664.22;5052726;28;20017;-77
2022/05/03 04:55:01;;;;;;;;;;;;;;;11.76;100.00;99662.28;5054479;28;19925;-77
2022/05/03 04:57:28;;;;;;;;;;;;;;;11.85;100.00;99665.41;5056835;28;19932;-77
2022/05/03 04:59:55;;;;;;;;;;;;;;;11.99;100.00;99665.22;5055529;28;19925;-77
2022/05/03 05:02:22;;;;;;;;;;;;;;;11.98;100.00;99660.81;5055400;28;19968;-77
2022/05/03 05:04:49;;;;;;;;;;;;;;;11.96;100.00;99660.47;5056723;28;20027;-77
2022/05/03 05:07:16;;;;;;;;;;;;;;;11.86;100.00;99661.38;5056491;28;19933;-77
2022/05/03 05:10:23;;;;;;;;;;;;;;;11.64;100.00;99662.03;5056668;28;19978;-77
2022/05/03 05:12:30;;;;;;;;;;;;;;;11.76;100.00;99656.69;5088726;28;19925;-77
2022/05/03 05:14:58;;;;;;;;;;;;;;;11.94;100.00;99667.69;5055201;28;20007;-77
2022/05/03 05:17:25;;;;;;;;;;;;;;;11.98;100.00;99663.63;5056504;28;19932;-77
2022/05/03 05:19:52;;;;;;;;;;;;;;;11.99;100.00;99667.22;5056282;28;20008;-76
2022/05/03 05:22:19;;;;;;;;;;;;;;;11.97;100.00;99670.44;5056385;28;19936;-77
2022/05/03 05:24:46;;;;;;;;;;;;;;;11.97;100.00;99667.66;5056285;28;19928;-77
2022/05/03 05:27:13;;;;;;;;;;;;;;;11.96;100.00;99677.28;5055241;28;19928;-77
2022/05/03 05:29:41;;;;;;;;;;;;;;;11.99;100.00;99670.84;5054997;28;20357;-77
2022/05/03 05:32:09;;;;;;;;;;;;;;;12.09;100.00;99672.69;5054790;28;19931;-77
2022/05/03 05:34:36;;;;;;;;;;;;;;;12.15;100.00;99668.22;5054529;28;20011;-77
2022/05/03 05:37:03;;;;;;;;;;;;;;;12.11;100.00;99670.28;5054946;28;20012;-77
2022/05/03 05:39:30;;;;;;;;;;;;;;;12.14;100.00;99672.25;5054760;28;20015;-77
2022/05/03 05:41:58;;;;;;;;;;;;;;;12.07;100.00;99672.31;5056065;28;19982;-77
2022/05/03 05:44:25;;;;;;;;;;;;;;;12.11;100.00;99664.69;5088225;28;19928;-77
2022/05/03 05:46:52;;;;;;;;;;;;;;;11.99;100.00;99670.84;5055953;28;20078;-77
2022/05/03 05:49:19;;;;;;;;;;;;;;;12.07;100.00;99671.53;5054500;28;19929;-77
2022/05/03 05:51:46;;;;;;;;;;;;;;;12.11;100.00;99673.09;5055785;28;19986;-77
2022/05/03 05:54:16;;;;;;;;;;;;;;;11.88;100.00;99670.16;5054598;28;19947;-77
2022/05/03 05:56:45;;;;;;;;;;;;;;;11.75;100.00;99677.50;5054633;28;20372;-77
2022/05/03 05:59:12;;;;;;;;;;;;;;;11.77;100.00;99677.09;5087858;28;20376;-76
2022/05/03 06:01:41;;;;;;;;;;;;;;;11.42;100.00;99681.00;5054506;28;19925;-77
2022/05/03 06:04:08;;;;;;;;;;;;;;;11.95;100.00;99684.06;5055383;28;19968;-77
2022/05/03 06:06:36;;;;;;;;;;;;;;;12.01;100.00;99676.78;5052410;28;20030;-77
2022/05/03 06:09:03;;;;;;;;;;;;;;;12.15;100.00;99673.03;5056297;28;20385;-80
2022/05/03 06:11:30;;;;;;;;;;;;;;;11.94;100.00;99673.28;5056321;28;19974;-79
2022/05/03 06:13:57;;;;;;;;;;;;;;;12.22;100.00;99678.56;5089799;28;20350;-78
2022/05/03 06:16:24;;;;;;;;;;;;;;;12.28;100.00;99676.88;5077836;28;19951;-80
2022/05/03 06:18:52;;;;;;;;;;;;;;;11.62;100.00;99681.19;5055123;28;19925;-79
2022/05/03 06:21:19;;;;;;;;;;;;;;;11.88;100.00;99678.56;5056210;28;19924;-79
2022/05/03 06:23:46;;;;;;;;;;;;;;;12.14;100.00;99677.84;5056146;28;19929;-80
2022/05/03 06:26:13;;;;;;;;;;;;;;;12.30;100.00;99680.81;5056017;28;19947;-79
2022/05/03 06:28:44;;;;;;;;;;;;;;;12.44;100.00;99680.66;5056337;28;19924;-80
2022/05/03 06:31:11;;;;;;;;;;;;;;;12.59;100.00;99681.22;5054652;28;19947;-79
2022/05/03 06:33:38;;;;;;;;;;;;;;;12.62;100.00;99680.38;5055389;28;19928;-80
2022/05/03 06:36:09;;;;;;;;;;;;;;;12.63;100.00;99677.16;5055768;28;19925;-79
2022/05/03 06:38:36;;;;;;;;;;;;;;;12.70;100.00;99676.28;5071363;28;19924;-79
2022/05/03 06:41:03;;;;;;;;;;;;;;;12.66;100.00;99675.53;5087876;28;20342;-79
2022/05/03 06:43:30;;;;;;;;;;;;;;;12.74;100.00;99672.19;5070334;28;20275;-80
2022/05/03 06:45:58;;;;;;;;;;;;;;;12.77;100.00;99676.97;5073901;28;19928;-79
2022/05/03 06:48:25;;;;;;;;;;;;;;;12.74;100.00;99675.00;5074402;28;20346;-79
2022/05/03 06:50:53;;;;;;;;;;;;;;;12.82;100.00;99683.28;5075520;28;19970;-79
2022/05/03 06:53:20;;;;;;;;;;;;;;;12.80;100.00;99678.09;5074334;28;20394;-79
2022/05/03 06:55:47;;;;;;;;;;;;;;;12.88;100.00;99679.59;5075921;28;20273;-79
2022/05/03 06:58:14;;;;;;;;;;;;;;;12.58;100.00;99674.84;5075384;28;20241;-79
2022/05/03 07:00:41;;;;;;;;;;;;;;;12.47;100.00;99682.59;5075339;28;19931;-80
2022/05/03 07:03:08;;;;;;;;;;;;;;;12.50;100.00;99678.16;5074136;28;20346;-80
2022/05/03 07:05:35;;;;;;;;;;;;;;;12.57;100.00;99681.66;5090864;28;20367;-79
2022/05/03 07:08:03;;;;;;;;;;;;;;;12.65;100.00;99674.72;5074168;28;20524;-79
2022/05/03 07:10:29;;;;;;;;;;;;;;;11.89;100.00;99677.34;5072280;28;20375;-80
2022/05/03 07:12:57;;;;;;;;;;;;;;;12.12;100.00;99677.47;5084916;28;19933;-79
2022/05/03 07:15:24;;;;;;;;;;;;;;;12.23;100.00;99680.13;5107288;28;19924;-79
2022/05/03 07:23:26;;;;;;;;;;;;;;;11.55;100.00;99670.09;5107506;28;19928;-79
2022/05/03 07:25:53;;;;;;;;;;;;;;;11.56;100.00;99680.06;5073418;28;19924;-78
2022/05/03 07:28:20;;;;;;;;;;;;;;;11.79;100.00;99678.25;5073668;28;19925;-79
2022/05/03 07:30:48;;;;;;;;;;;;;;;11.98;100.00;99679.66;5074573;28;20406;-79
2022/05/03 07:33:15;;;;;;;;;;;;;;;12.06;100.00;99681.94;5107052;28;20444;-79
2022/05/03 07:35:42;;;;;;;;;;;;;;;12.65;100.00;99680.34;5073504;28;20368;-79
2022/05/03 07:38:09;;;;;;;;;;;;;;;12.41;100.00;99677.88;5074649;28;19928;-79
2022/05/03 07:40:36;;;;;;;;;;;;;;;12.73;100.00;99676.22;5074498;28;19924;-79
2022/05/03 07:43:05;;;;;;;;;;;;;;;13.03;100.00;99678.19;5073433;28;19982;-79
2022/05/03 07:45:33;;;;;;;;;;;;;;;12.58;100.00;99680.47;5074515;28;20264;-82
2022/05/03 07:48:01;;;;;;;;;;;;;;;13.05;100.00;99680.56;5074584;28;20380;-81
2022/05/03 07:50:28;;;;;;;;;;;;;;;13.23;100.00;99681.06;5073203;28;20291;-81
2022/05/03 07:52:56;;;;;;;;;;;;;;;13.32;100.00;99681.31;5070056;28;19931;-81
2022/05/03 07:55:23;;;;;;;;;;;;;;;13.44;100.00;99675.06;5071394;28;20384;-80
2022/05/03 07:57:50;;;;;;;;;;;;;;;13.58;100.00;99680.44;5070525;28;19946;-81
2022/05/03 08:00:17;;;;;;;;;;;;;;;13.60;100.00;99675.19;5052283;28;19974;-78
2022/05/03 08:02:45;;;;;;;;;;;;;;;13.00;100.00;99673.44;5071352;28;19924;-80
2022/05/03 08:05:12;;;;;;;;;;;;;;;13.28;100.00;99666.56;5070834;28;19928;-80
2022/05/03 08:07:39;;;;;;;;;;;;;;;13.39;100.00;99665.13;5070169;28;20010;-79
2022/05/03 08:10:07;;;;;;;;;;;;;;;12.73;100.00;99664.22;5070625;28;19946;-79
2022/05/03 08:12:34;;;;;;;;;;;;;;;12.37;100.00;99669.50;5069392;28;20025;-79
2022/05/03 08:15:02;;;;;;;;;;;;;;;12.86;100.00;99667.22;5070483;28;19932;-81
2022/05/03 08:17:30;;;;;;;;;;;;;;;12.84;100.00;99670.44;5071637;28;20019;-79
2022/05/03 08:19:58;;;;;;;;;;;;;;;13.37;100.00;99669.59;5070133;28;19924;-79
2022/05/03 08:22:25;;;;;;;;;;;;;;;13.40;100.00;99666.75;5070780;28;19924;-80
2022/05/03 08:24:52;;;;;;;;;;;;;;;13.05;100.00;99672.16;5103456;28;19925;-79
2022/05/03 08:27:19;;;;;;;;;;;;;;;13.12;100.00;99680.44;5070599;28;19924;-79
2022/05/03 08:29:49;;;;;;;;;;;;;;;13.36;100.00;99665.22;5070139;28;19931;-80
2022/05/03 08:32:16;;;;;;;;;;;;;;;13.23;100.00;99665.03;5071266;28;19974;-80
2022/05/03 08:34:44;;;;;;;;;;;;;;;13.32;100.00;99662.47;5070021;28;19952;-79
2022/05/03 08:42:45;;;;;;;;;;;;;;;13.80;100.00;99659.16;5070400;28;20372;-77
2022/05/03 08:45:12;;;;;;;;;;;;;;;13.93;100.00;99657.31;5069765;28;19978;-77
2022/05/03 08:47:41;;;;;;;;;;;;;;;14.15;100.00;99664.06;5068697;28;19924;-78
2022/05/03 08:50:09;;;;;;;;;;;;;;;14.02;100.00;99655.50;5068945;28;19924;-77
2022/05/03 08:52:47;;;;;;;;;;;;;;;14.11;100.00;99663.34;5069656;28;19928;-77
2022/05/03 08:55:14;;;;;;;;;;;;;;;14.42;100.00;99661.91;5069506;28;20357;-78
2022/05/03 08:57:45;;;;;;;;;;;;;;;13.86;100.00;99658.22;5069160;28;19924;-78
2022/05/03 09:00:13;;;;;;;;;;;;;;;14.13;100.00;99660.91;5070077;28;19970;-77
2022/05/03 09:02:44;;;;;;;;;;;;;;;14.38;100.00;99669.63;5069411;28;19925;-78
2022/05/03 09:05:11;;;;;;;;;;;;;;;13.80;100.00;99656.34;5068244;28;19924;-78
2022/05/03 09:07:46;;;;;;;;;;;;;;;13.64;100.00;99661.88;5069661;28;20295;-77
2022/05/03 09:10:18;;;;;;;;;;;;;;;12.43;100.00;99667.81;5070139;28;19932;-77
2022/05/03 09:12:47;;;;;;;;;;;;;;;11.91;100.00;99669.31;5069868;28;19924;-77
2022/05/03 09:15:14;;;;;;;;;;;;;;;11.99;100.00;99673.63;5069676;28;19924;-77
2022/05/03 09:17:41;;;;;;;;;;;;;;;13.30;100.00;99658.50;5068409;28;19925;-77
2022/05/03 09:25:49;;;;;;;;;;;;;;;13.10;100.00;99657.66;5068206;28;19928;-77
2022/05/03 09:30:24;;;;;;;;;;;;;;;13.56;100.00;99655.59;5149009;27;19916;-77
2022/05/03 09:32:54;;;;;;;;;;;;;;;13.47;100.00;99658.19;5148701;27;19923;-77
2022/05/03 09:35:31;;;;;;;;;;;;;;;12.90;100.00;99651.13;5148142;27;19927;-77
2022/05/03 09:37:59;;;;;;;;;;;;;;;13.73;100.00;99656.50;5149261;27;20053;-77
2022/05/03 09:40:27;;;;;;;;;;;;;;;13.98;100.00;99651.19;5148920;27;19929;-78
2022/05/03 09:42:55;;;;;;;;;;;;;;;14.60;100.00;99656.66;5148337;27;19923;-77
2022/05/03 09:45:22;;;;;;;;;;;;;;;14.56;100.00;99649.53;5149302;27;19927;-79
2022/05/03 09:47:51;;;;;;;;;;;;;;;14.37;100.00;99642.75;5149055;27;19972;-78
2022/05/03 09:50:28;;;;;;;;;;;;;;;13.60;100.00;99647.91;5147968;27;20335;-79
2022/05/03 09:52:56;;;;;;;;;;;;;;;12.68;100.00;99648.66;5148183;27;19975;-79
2022/05/03 09:55:30;;;;;;;;;;;;;;;12.35;100.00;99654.34;5134841;27;19924;-78
2022/05/03 09:58:01;;;;;;;;;;;;;;;12.69;100.00;99652.25;5146480;27;20017;-79
2022/05/03 10:00:30;;;;;;;;;;;;;;;12.63;100.00;99648.34;5147332;27;19923;-79
2022/05/03 10:02:58;;;;;;;;;;;;;;;13.12;100.00;99649.56;5135936;27;20328;-79
2022/05/03 10:05:26;;;;;;;;;;;;;;;13.90;100.00;99646.94;5126962;28;20299;-79
2022/05/03 10:07:54;;;;;;;;;;;;;;;14.61;100.00;99658.25;5122790;27;19927;-79
2022/05/03 10:10:22;;;;;;;;;;;;;;;14.12;100.00;99642.44;5129532;27;20445;-79
2022/05/03 10:12:50;;;;;;;;;;;;;;;14.73;100.00;99649.16;5131229;27;19928;-79
2022/05/03 10:20:35;;;;;;;;;;;;;;;14.96;100.00;99643.38;5127119;27;19924;-79
2022/05/03 10:21:02;;;;;;;;;;;;;;;14.95;100.00;99644.59;5125992;28;19930;-79
2022/05/03 10:23:33;;;;;;;;;;;;;;;14.74;100.00;99649.94;5137950;27;19962;-79
2022/05/03 10:26:05;;;;;;;;;;;;;;;14.46;100.00;99646.53;5148515;27;19924;-79
2022/05/03 10:28:51;;;;;;;;;;;;;;;14.57;100.00;99646.28;5145749;27;19930;-79
2022/05/03 10:31:20;;;;;;;;;;;;;;;13.97;100.00;99644.78;5136432;27;19946;-79
2022/05/03 10:33:47;;;;;;;;;;;;;;;13.53;100.00;99655.66;5132224;27;19927;-80
2022/05/03 10:36:30;;;;;;;;;;;;;;;12.71;100.00;99656.22;5143839;27;20013;-79
2022/05/03 10:39:17;;;;;;;;;;;;;;;12.82;100.00;99658.06;5132669;27;19964;-79
2022/05/03 10:41:51;;;;;;;;;;;;;;;13.51;100.00;99642.06;5103854;28;19928;-79
2022/05/03 10:44:37;;;;;;;;;;;;;;;13.79;100.00;99643.53;5112508;28;19930;-79
2022/05/03 10:47:08;;;;;;;;;;;;;;;14.46;100.00;99646.53;5134929;27;19984;-80
2022/05/03 10:49:56;;;;;;;;;;;;;;;14.33;100.00;99642.81;5122704;27;19928;-79
2022/05/03 10:52:23;;;;;;;;;;;;;;;14.86;100.00;99646.44;5130446;27;20398;-79
2022/05/03 10:55:06;;;;;;;;;;;;;;;14.48;100.00;99640.47;5111591;28;19923;-79
2022/05/03 10:57:53;;;;;;;;;;;;;;;14.49;100.00;99644.88;5124366;27;19930;-79
2022/05/03 11:00:39;;;;;;;;;;;;;;;14.28;100.00;99639.75;5133184;27;20010;-79
2022/05/03 11:03:19;;;;;;;;;;;;;;;13.76;100.00;99630.34;5125457;27;19928;-79
2022/05/03 11:06:06;;;;;;;;;;;;;;;13.94;100.00;99644.84;5125362;27;19978;-79
2022/05/03 11:08:35;;;;;;;;;;;;;;;14.21;100.00;99639.84;5116911;27;19927;-79
2022/05/03 11:11:02;;;;;;;;;;;;;;;14.00;100.00;99638.28;5111343;28;20018;-79
2022/05/03 11:13:36;;;;;;;;;;;;;;;12.86;100.00;99636.38;5122045;27;20409;-78
2022/05/03 11:16:19;;;;;;;;;;;;;;;14.00;100.00;99640.28;5111621;28;19927;-78
2022/05/03 11:18:47;;;;;;;;;;;;;;;13.44;100.00;99641.38;5112929;28;20379;-79
2022/05/03 11:21:14;;;;;;;;;;;;;;;13.21;100.00;99633.00;5112476;28;19973;-78
2022/05/03 11:23:48;;;;;;;;;;;;;;;13.04;100.00;99637.69;5123742;27;19928;-78
2022/05/03 11:26:18;;;;;;;;;;;;;;;13.58;100.00;99646.75;5116490;27;20546;-79
2022/05/03 11:28:47;;;;;;;;;;;;;;;12.47;100.00;99651.78;5116923;27;19923;-78
2022/05/03 11:31:19;;;;;;;;;;;;;;;13.66;100.00;99634.16;5125082;27;20018;-79
2022/05/03 11:33:54;;;;;;;;;;;;;;;14.13;100.00;99636.38;5124805;27;20022;-79
2022/05/03 11:36:22;;;;;;;;;;;;;;;14.64;100.00;99623.66;5115520;27;20409;-79
2022/05/03 11:38:49;;;;;;;;;;;;;;;13.42;100.00;99627.00;5127480;27;19924;-79
2022/05/03 11:41:22;;;;;;;;;;;;;;;13.58;100.00;99618.69;5121304;27;20014;-79
2022/05/03 11:43:49;;;;;;;;;;;;;;;13.08;100.00;99618.00;5119652;27;19931;-79
2022/05/03 11:46:17;;;;;;;;;;;;;;;13.97;100.00;99625.09;5127983;27;19927;-79
2022/05/03 11:48:45;;;;;;;;;;;;;;;14.65;100.00;99628.03;5111222;28;19932;-79
2022/05/03 11:56:46;;;;;;;;;;;;;;;15.21;100.00;99606.13;5116500;27;19927;-78
2022/05/03 11:59:14;;;;;;;;;;;;;;;14.92;100.00;99611.69;5125894;27;19935;-78
2022/05/03 12:01:41;;;;;;;;;;;;;;;15.21;100.00;99618.19;5125017;27;19927;-79
2022/05/03 12:04:08;;;;;;;;;;;;;;;15.06;100.00;99611.34;5133919;27;20392;-79
2022/05/03 12:06:43;;;;;;;;;;;;;;;15.16;100.00;99601.81;5110600;27;20224;-79
2022/05/03 12:09:17;;;;;;;;;;;;;;;15.25;100.00;99610.44;5117378;27;20313;-79
2022/05/03 12:14:42;;;;;;;;;;;;;;;14.98;100.00;99598.69;5126961;27;19976;-79
2022/05/03 12:17:09;;;;;;;;;;;;;;;14.55;100.00;99597.34;5117577;27;19975;-79
2022/05/03 12:19:37;;;;;;;;;;;;;;;13.72;100.00;99607.16;5118580;27;19931;-78
2022/05/03 12:22:07;;;;;;;;;;;;;;;14.33;100.00;99608.28;5123421;27;19993;-79
2022/05/03 12:24:35;;;;;;;;;;;;;;;13.56;100.00;99605.06;5113616;27;19924;-79
2022/05/03 12:27:12;;;;;;;;;;;;;;;13.90;100.00;99601.97;5122475;27;19928;-79
2022/05/03 12:29:43;;;;;;;;;;;;;;;13.79;100.00;99607.03;5102264;27;19931;-78
2022/05/03 12:32:14;;;;;;;;;;;;;;;14.08;100.00;99596.78;5131640;27;20366;-79
2022/05/03 12:34:54;;;;;;;;;;;;;;;14.60;100.00;99588.41;5115982;27;19972;-79
2022/05/03 12:37:21;;;;;;;;;;;;;;;13.29;100.00;99595.16;5134640;27;19931;-78
2022/05/03 12:39:48;;;;;;;;;;;;;;;13.59;100.00;99594.97;5116475;27;20026;-79
2022/05/03 12:42:15;;;;;;;;;;;;;;;13.11;100.00;99594.69;5132380;27;19924;-79
2022/05/03 12:44:51;;;;;;;;;;;;;;;14.27;100.00;99590.34;5134647;27;20388;-79
2022/05/03 12:47:18;;;;;;;;;;;;;;;14.53;100.00;99586.53;5134740;27;19976;-79
2022/05/03 12:49:45;;;;;;;;;;;;;;;15.12;100.00;99587.06;5133279;27;19935;-79
2022/05/03 12:52:13;;;;;;;;;;;;;;;15.28;100.00;99584.22;5133380;27;19928;-79
2022/05/03 12:54:41;;;;;;;;;;;;;;;15.62;100.00;99572.47;5134556;27;20413;-79
2022/05/03 12:59:57;;;;;;;;;;;;;;;14.84;100.00;99568.09;5125478;27;19939;-79
2022/05/03 13:02:24;;;;;;;;;;;;;;;15.04;100.00;99565.97;5123288;27;19927;-78
2022/05/03 13:04:52;;;;;;;;;;;;;;;13.66;100.00;99569.59;5112149;27;20293;-78
2022/05/03 13:07:19;;;;;;;;;;;;;;;13.44;100.00;99562.78;5130905;27;19931;-78
2022/05/03 13:09:46;;;;;;;;;;;;;;;14.40;100.00;99568.78;5119458;27;19924;-79
2022/05/03 13:12:13;;;;;;;;;;;;;;;14.79;100.00;99563.00;5111137;28;20030;-79
2022/05/03 13:14:41;;;;;;;;;;;;;;;14.76;100.00;99572.31;5127392;27;19930;-79
2022/05/03 13:17:08;;;;;;;;;;;;;;;14.25;100.00;99568.31;5116621;27;19941;-79
2022/05/03 13:19:35;;;;;;;;;;;;;;;14.04;100.00;99567.97;5121543;27;19963;-79
2022/05/03 13:22:02;;;;;;;;;;;;;;;14.33;100.00;99572.53;5110364;28;20040;-79
2022/05/03 13:24:30;;;;;;;;;;;;;;;15.23;100.00;99570.69;5111199;28;19973;-79
2022/05/03 13:26:58;;;;;;;;;;;;;;;15.62;100.00;99564.81;5127134;28;19934;-79
2022/05/03 13:29:25;;;;;;;;;;;;;;;15.62;100.00;99570.44;5118424;28;19976;-79